createdAt,value
2019-02-18T00:00:56.801Z,3.20
2019-02-18T00:02:00.384Z,3.27
2019-02-18T00:03:04.452Z,3.80
2019-02-18T00:04:07.872Z,3.12
2019-02-18T00:05:11.322Z,3.92
2019-02-18T00:06:14.939Z,3.50
2019-02-18T00:07:18.393Z,3.95
2019-02-18T00:08:21.831Z,3.55
2019-02-18T00:09:25.298Z,3.30
2019-02-18T00:10:28.732Z,3.10
2019-02-18T00:11:32.219Z,3.58
2019-02-18T00:12:35.729Z,3.62
2019-02-18T00:13:39.224Z,3.22
2019-02-18T00:14:42.717Z,3.52
2019-02-18T00:15:46.243Z,3.20
2019-02-18T00:16:49.681Z,3.40
2019-02-18T00:17:53.256Z,3.10
2019-02-18T00:18:56.696Z,3.10
2019-02-18T00:20:00.218Z,4.20
2019-02-18T00:21:03.723Z,3.55
2019-02-18T00:22:07.147Z,3.77
2019-02-18T00:23:10.572Z,3.22
2019-02-18T00:24:14.001Z,3.20
2019-02-18T00:25:17.677Z,3.85
2019-02-18T00:26:21.116Z,3.80
2019-02-18T00:27:24.572Z,4.20
2019-02-18T00:28:27.955Z,3.98
2019-02-18T00:29:31.465Z,2.85
2019-02-18T00:30:34.889Z,3.90
2019-02-18T00:31:38.374Z,3.90
2019-02-18T00:32:41.799Z,4.08
2019-02-18T00:33:45.298Z,4.10
2019-02-18T00:34:48.725Z,4.65
2019-02-18T00:35:52.156Z,3.90
2019-02-18T00:36:55.662Z,4.17
2019-02-18T00:37:59.085Z,3.87
2019-02-18T00:39:02.573Z,4.12
2019-02-18T00:40:08.442Z,4.62
2019-02-18T00:41:11.888Z,4.05
2019-02-18T00:42:15.305Z,3.87
2019-02-18T00:43:18.797Z,4.28
2019-02-18T00:44:22.237Z,9.58
2019-02-18T00:45:25.667Z,13.80
2019-02-18T00:46:29.190Z,10.28
2019-02-18T00:47:32.616Z,4.87
2019-02-18T00:48:36.039Z,4.83
2019-02-18T00:49:39.470Z,4.58
2019-02-18T00:50:42.916Z,3.92
2019-02-18T00:51:46.360Z,3.15
2019-02-18T00:52:49.781Z,3.75
2019-02-18T00:53:53.220Z,4.42
2019-02-18T00:54:56.652Z,3.37
2019-02-18T00:56:00.082Z,3.50
2019-02-18T00:57:03.604Z,4.22
2019-02-18T00:58:07.075Z,3.90
2019-02-18T00:59:10.513Z,4.28
2019-02-18T01:00:16.172Z,3.83
2019-02-18T01:01:19.690Z,4.72
2019-02-18T01:02:23.279Z,3.10
2019-02-18T01:03:26.740Z,3.33
2019-02-18T01:04:30.193Z,3.58
2019-02-18T01:05:33.619Z,3.72
2019-02-18T01:06:37.046Z,3.75
2019-02-18T01:07:40.626Z,3.35
2019-02-18T01:08:44.124Z,2.75
2019-02-18T01:09:47.684Z,4.37
2019-02-18T01:10:51.182Z,4.20
2019-02-18T01:11:54.606Z,4.03
2019-02-18T01:12:58.127Z,4.72
2019-02-18T01:14:01.560Z,3.52
2019-02-18T01:15:07.234Z,4.60
2019-02-18T01:16:10.659Z,5.58
2019-02-18T01:17:14.080Z,5.00
2019-02-18T01:18:17.534Z,4.70
2019-02-18T01:19:21.033Z,3.40
2019-02-18T01:20:24.589Z,3.15
2019-02-18T01:21:28.014Z,4.37
2019-02-18T01:22:31.564Z,4.83
2019-02-18T01:23:35.032Z,3.42
2019-02-18T01:24:38.453Z,3.77
2019-02-18T01:25:41.873Z,3.52
2019-02-18T01:26:45.300Z,2.90
2019-02-18T01:27:48.743Z,4.28
2019-02-18T01:28:52.184Z,2.80
2019-02-18T01:29:55.689Z,3.00
2019-02-18T01:30:59.178Z,3.20
2019-02-18T01:32:02.614Z,2.80
2019-02-18T01:33:06.036Z,3.70
2019-02-18T01:34:09.491Z,3.80
2019-02-18T01:35:13.253Z,3.75
2019-02-18T01:36:16.658Z,3.75
2019-02-18T01:37:20.152Z,3.40
2019-02-18T01:38:23.641Z,4.28
2019-02-18T01:39:27.096Z,5.78
2019-02-18T01:40:30.525Z,5.58
2019-02-18T01:41:33.959Z,4.95
2019-02-18T01:42:37.601Z,4.10
2019-02-18T01:43:41.025Z,3.22
2019-02-18T01:44:44.469Z,3.60
2019-02-18T01:45:47.969Z,4.70
2019-02-18T01:46:51.391Z,4.45
2019-02-18T01:47:54.828Z,3.25
2019-02-18T01:48:58.271Z,3.52
2019-02-18T01:50:01.711Z,3.45
2019-02-18T01:51:05.222Z,3.17
2019-02-18T01:52:08.692Z,2.80
2019-02-18T01:53:12.124Z,2.90
2019-02-18T01:54:15.550Z,3.65
2019-02-18T01:55:18.990Z,3.85
2019-02-18T01:56:22.409Z,3.70
2019-02-18T01:57:25.836Z,4.40
2019-02-18T01:58:29.259Z,3.15
2019-02-18T01:59:32.700Z,3.65
2019-02-18T02:00:36.306Z,3.50
2019-02-18T02:01:39.803Z,3.92
2019-02-18T02:02:43.372Z,3.00
2019-02-18T02:03:46.796Z,3.85
2019-02-18T02:04:50.223Z,3.15
2019-02-18T02:05:53.675Z,3.12
2019-02-18T02:06:57.257Z,3.30
2019-02-18T02:08:00.685Z,3.30
2019-02-18T02:09:07.494Z,3.00
2019-02-18T02:10:12.959Z,3.30
2019-02-18T02:11:16.471Z,3.22
2019-02-18T02:12:19.908Z,3.40
2019-02-18T02:13:33.754Z,3.52
2019-02-18T02:14:37.168Z,3.15
2019-02-18T02:15:40.595Z,3.52
2019-02-18T02:16:44.035Z,3.42
2019-02-18T02:17:47.456Z,3.00
2019-02-18T02:18:50.874Z,2.83
2019-02-18T02:19:54.297Z,3.05
2019-02-18T02:20:57.819Z,4.40
2019-02-18T02:22:01.319Z,9.10
2019-02-18T02:23:04.777Z,10.65
2019-02-18T02:24:08.269Z,5.70
2019-02-18T02:25:11.766Z,5.17
2019-02-18T02:26:15.187Z,3.30
2019-02-18T02:27:18.631Z,2.70
2019-02-18T02:28:22.145Z,2.10
2019-02-18T02:29:25.577Z,2.65
2019-02-18T02:30:28.984Z,2.70
2019-02-18T02:31:32.411Z,2.45
2019-02-18T02:32:35.851Z,2.70
2019-02-18T02:33:39.301Z,2.42
2019-02-18T02:34:42.767Z,2.22
2019-02-18T02:35:46.189Z,2.22
2019-02-18T02:36:49.608Z,2.60
2019-02-18T02:37:53.059Z,2.50
2019-02-18T02:38:56.481Z,2.45
2019-02-18T02:39:59.897Z,2.50
2019-02-18T02:41:03.390Z,2.45
2019-02-18T02:42:06.882Z,2.92
2019-02-18T02:43:10.328Z,2.65
2019-02-18T02:44:13.751Z,2.80
2019-02-18T02:45:17.167Z,3.27
2019-02-18T02:46:20.729Z,3.20
2019-02-18T02:47:24.227Z,3.35
2019-02-18T02:48:27.664Z,3.22
2019-02-18T02:49:31.111Z,2.60
2019-02-18T02:50:34.537Z,2.80
2019-02-18T02:51:37.963Z,2.80
2019-02-18T02:52:41.457Z,3.30
2019-02-18T02:53:44.901Z,3.20
2019-02-18T02:54:48.325Z,4.08
2019-02-18T02:55:51.831Z,3.08
2019-02-18T02:56:55.241Z,3.30
2019-02-18T02:57:58.732Z,3.12
2019-02-18T02:59:02.257Z,3.45
2019-02-18T03:00:15.920Z,3.20
2019-02-18T03:01:19.359Z,3.35
2019-02-18T03:02:22.797Z,3.55
2019-02-18T03:03:26.222Z,3.35
2019-02-18T03:04:29.745Z,3.40
2019-02-18T03:05:33.235Z,3.35
2019-02-18T03:06:36.659Z,3.70
2019-02-18T03:07:40.082Z,3.65
2019-02-18T03:08:43.603Z,6.10
2019-02-18T03:09:47.057Z,5.08
2019-02-18T03:10:50.485Z,6.67
2019-02-18T03:11:53.982Z,6.35
2019-02-18T03:12:57.403Z,5.78
2019-02-18T03:14:00.908Z,7.45
2019-02-18T03:15:07.088Z,7.03
2019-02-18T03:16:10.537Z,6.80
2019-02-18T03:17:13.953Z,4.50
2019-02-18T03:18:17.391Z,3.65
2019-02-18T03:19:20.902Z,3.58
2019-02-18T03:20:24.352Z,3.20
2019-02-18T03:21:27.772Z,2.75
2019-02-18T03:22:31.265Z,2.80
2019-02-18T03:23:34.693Z,3.20
2019-02-18T03:24:38.141Z,4.40
2019-02-18T03:25:42.165Z,4.90
2019-02-18T03:26:45.589Z,4.85
2019-02-18T03:27:55.130Z,7.58
2019-02-18T03:29:10.327Z,6.78
2019-02-18T03:30:36.252Z,8.13
2019-02-18T03:31:39.688Z,7.78
2019-02-18T03:32:43.289Z,11.80
2019-02-18T03:33:52.576Z,9.70
2019-02-18T03:34:56.079Z,11.48
2019-02-18T03:35:59.598Z,14.98
2019-02-18T03:37:03.036Z,15.93
2019-02-18T03:38:06.472Z,14.58
2019-02-18T03:39:09.902Z,13.90
2019-02-18T03:40:13.503Z,11.63
2019-02-18T03:41:16.938Z,9.43
2019-02-18T03:42:20.374Z,8.95
2019-02-18T03:43:23.939Z,8.68
2019-02-18T03:44:27.376Z,8.78
2019-02-18T03:45:30.971Z,6.50
2019-02-18T03:46:34.477Z,6.03
2019-02-18T03:47:37.907Z,5.92
2019-02-18T03:48:41.331Z,6.08
2019-02-18T03:49:44.774Z,6.25
2019-02-18T03:50:48.292Z,7.00
2019-02-18T03:51:51.784Z,7.85
2019-02-18T03:52:55.242Z,10.93
2019-02-18T03:53:58.812Z,9.73
2019-02-18T03:55:02.314Z,9.00
2019-02-18T03:56:05.826Z,7.95
2019-02-18T03:57:09.319Z,7.78
2019-02-18T03:58:12.897Z,9.85
2019-02-18T03:59:16.328Z,11.12
2019-02-18T04:00:19.821Z,9.23
2019-02-18T04:01:23.347Z,8.00
2019-02-18T04:02:27.410Z,10.13
2019-02-18T04:03:30.910Z,9.95
2019-02-18T04:04:34.341Z,9.90
2019-02-18T04:05:37.768Z,17.17
2019-02-18T04:06:41.220Z,16.75
2019-02-18T04:07:44.658Z,16.45
2019-02-18T04:08:48.099Z,15.10
2019-02-18T04:09:51.791Z,12.68
2019-02-18T04:10:55.224Z,13.72
2019-02-18T04:11:58.711Z,10.48
2019-02-18T04:13:02.149Z,8.43
2019-02-18T04:14:05.632Z,7.25
2019-02-18T04:15:14.295Z,7.45
2019-02-18T04:16:17.721Z,7.72
2019-02-18T04:17:21.248Z,6.33
2019-02-18T04:18:24.675Z,5.53
2019-02-18T04:19:28.129Z,4.97
2019-02-18T04:20:31.592Z,5.17
2019-02-18T04:21:35.020Z,5.62
2019-02-18T04:22:38.463Z,4.85
2019-02-18T04:23:41.967Z,3.80
2019-02-18T04:24:45.404Z,4.87
2019-02-18T04:25:48.839Z,6.08
2019-02-18T04:26:52.272Z,6.20
2019-02-18T04:27:55.774Z,4.33
2019-02-18T04:28:59.267Z,5.83
2019-02-18T04:30:02.762Z,5.53
2019-02-18T04:31:06.187Z,4.70
2019-02-18T04:32:09.628Z,4.45
2019-02-18T04:33:13.069Z,5.00
2019-02-18T04:34:16.525Z,4.78
2019-02-18T04:35:19.942Z,5.20
2019-02-18T04:36:23.365Z,4.65
2019-02-18T04:37:26.795Z,7.65
2019-02-18T04:38:30.247Z,8.53
2019-02-18T04:39:33.679Z,7.37
2019-02-18T04:40:37.173Z,8.25
2019-02-18T04:41:40.633Z,8.65
2019-02-18T04:42:44.125Z,8.55
2019-02-18T04:43:47.581Z,8.58
2019-02-18T04:44:51.017Z,9.43
2019-02-18T04:45:54.446Z,8.90
2019-02-18T04:46:57.875Z,11.22
2019-02-18T04:48:01.319Z,14.33
2019-02-18T04:49:04.847Z,10.30
2019-02-18T04:50:09.204Z,9.18
2019-02-18T04:51:12.633Z,7.10
2019-02-18T04:52:16.133Z,6.53
2019-02-18T04:53:19.574Z,6.17
2019-02-18T04:54:23.018Z,4.78
2019-02-18T04:55:26.465Z,4.08
2019-02-18T04:56:29.893Z,3.85
2019-02-18T04:57:33.404Z,4.12
2019-02-18T04:58:36.892Z,4.00
2019-02-18T04:59:40.331Z,4.03
2019-02-18T05:00:43.764Z,3.77
2019-02-18T05:01:47.270Z,3.67
2019-02-18T05:02:50.695Z,3.75
2019-02-18T05:03:54.131Z,4.20
2019-02-18T05:04:57.583Z,5.08
2019-02-18T05:06:01.030Z,5.00
2019-02-18T05:07:04.523Z,5.22
2019-02-18T05:08:07.951Z,6.87
2019-02-18T05:09:11.378Z,7.20
2019-02-18T05:10:14.825Z,7.37
2019-02-18T05:11:18.423Z,6.08
2019-02-18T05:12:21.855Z,5.92
2019-02-18T05:13:25.291Z,4.40
2019-02-18T05:14:28.731Z,4.87
2019-02-18T05:15:32.243Z,7.30
2019-02-18T05:16:35.679Z,6.47
2019-02-18T05:17:39.170Z,6.60
2019-02-18T05:18:42.607Z,6.25
2019-02-18T05:19:46.101Z,6.78
2019-02-18T05:20:49.567Z,5.60
2019-02-18T05:21:53.061Z,14.58
2019-02-18T05:22:56.487Z,16.23
2019-02-18T05:23:59.939Z,15.43
2019-02-18T05:25:03.940Z,11.75
2019-02-18T05:26:07.383Z,10.63
2019-02-18T05:27:10.915Z,24.87
2019-02-18T05:28:14.355Z,33.30
2019-02-18T05:29:17.791Z,38.65
2019-02-18T05:30:21.298Z,35.10
2019-02-18T05:31:24.820Z,20.15
2019-02-18T05:32:28.252Z,11.57
2019-02-18T05:33:31.764Z,12.05
2019-02-18T05:34:35.195Z,8.60
2019-02-18T05:35:38.623Z,11.03
2019-02-18T05:36:42.071Z,9.45
2019-02-18T05:37:45.508Z,5.83
2019-02-18T05:38:49.017Z,5.70
2019-02-18T05:39:52.461Z,14.03
2019-02-18T05:40:55.881Z,11.18
2019-02-18T05:41:59.336Z,14.25
2019-02-18T05:43:02.788Z,10.75
2019-02-18T05:44:06.278Z,8.93
2019-02-18T05:45:09.841Z,6.87
2019-02-18T05:46:13.292Z,12.33
2019-02-18T05:47:16.804Z,12.85
2019-02-18T05:48:20.197Z,10.43
2019-02-18T05:49:23.620Z,6.97
2019-02-18T05:50:27.040Z,5.40
2019-02-18T05:51:30.485Z,5.53
2019-02-18T05:52:34.013Z,4.12
2019-02-18T05:53:37.437Z,4.67
2019-02-18T05:54:40.869Z,6.78
2019-02-18T05:55:44.304Z,9.08
2019-02-18T05:56:47.753Z,9.20
2019-02-18T05:57:51.186Z,6.40
2019-02-18T05:58:54.609Z,4.70
2019-02-18T05:59:58.116Z,4.78
2019-02-18T06:01:01.542Z,4.75
2019-02-18T06:02:05.067Z,3.35
2019-02-18T06:03:08.489Z,3.40
2019-02-18T06:04:11.917Z,4.30
2019-02-18T06:05:15.349Z,3.80
2019-02-18T06:06:18.837Z,4.33
2019-02-18T06:07:22.383Z,5.00
2019-02-18T06:08:25.886Z,4.80
2019-02-18T06:09:30.377Z,4.60
2019-02-18T06:10:33.990Z,4.55
2019-02-18T06:11:37.423Z,4.78
2019-02-18T06:12:40.869Z,4.80
2019-02-18T06:13:44.368Z,5.60
2019-02-18T06:14:47.812Z,6.78
2019-02-18T06:15:51.236Z,6.22
2019-02-18T06:16:54.746Z,7.90
2019-02-18T06:17:58.190Z,8.83
2019-02-18T06:19:01.697Z,11.75
2019-02-18T06:20:07.615Z,12.70
2019-02-18T06:21:11.117Z,9.35
2019-02-18T06:22:14.546Z,8.48
2019-02-18T06:23:18.004Z,14.47
2019-02-18T06:24:21.461Z,11.95
2019-02-18T06:25:25.056Z,11.50
2019-02-18T06:26:29.129Z,12.43
2019-02-18T06:27:32.630Z,9.40
2019-02-18T06:28:36.088Z,9.58
2019-02-18T06:29:39.542Z,8.35
2019-02-18T06:30:42.969Z,6.55
2019-02-18T06:31:46.399Z,4.33
2019-02-18T06:32:49.826Z,3.20
2019-02-18T06:33:53.282Z,2.80
2019-02-18T06:34:56.724Z,2.72
2019-02-18T06:36:00.172Z,3.42
2019-02-18T06:37:03.674Z,4.25
2019-02-18T06:38:07.168Z,6.85
2019-02-18T06:39:10.773Z,11.40
2019-02-18T06:40:14.222Z,11.30
2019-02-18T06:41:17.649Z,10.00
2019-02-18T06:42:21.094Z,12.58
2019-02-18T06:43:24.556Z,9.98
2019-02-18T06:44:29.629Z,9.23
2019-02-18T06:45:49.315Z,10.10
2019-02-18T06:46:54.385Z,9.20
2019-02-18T06:47:59.451Z,6.78
2019-02-18T06:49:10.246Z,6.65
2019-02-18T06:50:13.688Z,6.42
2019-02-18T06:51:17.257Z,7.70
2019-02-18T06:52:20.627Z,6.80
2019-02-18T06:53:24.047Z,7.60
2019-02-18T06:54:27.486Z,6.35
2019-02-18T06:55:31.001Z,3.90
2019-02-18T06:56:44.800Z,5.33
2019-02-18T06:58:01.932Z,5.62
2019-02-18T06:59:07.014Z,6.70
2019-02-18T07:00:12.419Z,6.90
2019-02-18T07:01:17.681Z,8.68
2019-02-18T07:02:22.837Z,7.78
2019-02-18T07:03:39.964Z,8.55
2019-02-18T07:04:45.034Z,6.37
2019-02-18T07:06:05.058Z,4.92
2019-02-18T07:07:21.949Z,4.22
2019-02-18T07:08:42.951Z,2.92
2019-02-18T07:09:53.930Z,2.62
2019-02-18T07:10:59.104Z,3.22
2019-02-18T07:12:04.175Z,3.15
2019-02-18T07:13:07.731Z,4.25
2019-02-18T07:14:11.183Z,5.03
2019-02-18T07:15:14.635Z,5.37
2019-02-18T07:16:18.199Z,3.90
2019-02-18T07:17:22.401Z,4.67
2019-02-18T07:18:25.844Z,4.72
2019-02-18T07:19:29.352Z,5.40
2019-02-18T07:20:32.791Z,4.62
2019-02-18T07:21:36.223Z,5.22
2019-02-18T07:22:39.681Z,5.20
2019-02-18T07:23:43.085Z,9.05
2019-02-18T07:24:46.524Z,11.45
2019-02-18T07:25:49.972Z,7.53
2019-02-18T07:26:53.416Z,7.45
2019-02-18T07:27:56.866Z,5.65
2019-02-18T07:29:00.292Z,5.45
2019-02-18T07:30:04.606Z,6.67
2019-02-18T07:31:08.185Z,5.53
2019-02-18T07:32:11.710Z,5.17
2019-02-18T07:33:15.132Z,7.00
2019-02-18T07:34:18.587Z,5.35
2019-02-18T07:35:22.004Z,5.03
2019-02-18T07:36:25.455Z,5.53
2019-02-18T07:37:29.648Z,6.05
2019-02-18T07:38:33.073Z,5.78
2019-02-18T07:39:36.576Z,5.97
2019-02-18T07:40:40.082Z,5.10
2019-02-18T07:41:43.570Z,4.80
2019-02-18T07:42:47.007Z,13.18
2019-02-18T07:43:50.440Z,9.43
2019-02-18T07:44:53.876Z,7.12
2019-02-18T07:45:57.301Z,4.80
2019-02-18T07:47:00.748Z,4.03
2019-02-18T07:48:04.181Z,4.75
2019-02-18T07:49:07.614Z,5.25
2019-02-18T07:50:20.271Z,5.12
2019-02-18T07:51:16.385Z,4.42
2019-02-18T07:52:19.825Z,4.60
2019-02-18T07:53:23.256Z,4.58
2019-02-18T07:54:26.763Z,6.30
2019-02-18T07:55:30.198Z,11.68
2019-02-18T07:56:33.631Z,10.78
2019-02-18T07:57:37.097Z,11.83
2019-02-18T07:58:40.526Z,9.90
2019-02-18T07:59:44.030Z,7.00
2019-02-18T08:00:47.491Z,4.00
2019-02-18T08:01:50.979Z,3.80
2019-02-18T08:02:54.431Z,4.42
2019-02-18T08:03:57.896Z,4.28
2019-02-18T08:05:02.219Z,4.45
2019-02-18T08:06:05.972Z,3.50
2019-02-18T08:07:09.475Z,4.33
2019-02-18T08:08:12.980Z,5.58
2019-02-18T08:09:16.409Z,3.85
2019-02-18T08:10:19.972Z,4.78
2019-02-18T08:11:23.485Z,3.67
2019-02-18T08:12:26.934Z,3.90
2019-02-18T08:13:30.411Z,3.10
2019-02-18T08:14:33.851Z,2.85
2019-02-18T08:15:37.271Z,2.75
2019-02-18T08:16:40.723Z,2.55
2019-02-18T08:17:44.153Z,1.70
2019-02-18T08:18:47.666Z,2.58
2019-02-18T08:19:51.174Z,2.27
2019-02-18T08:20:57.004Z,2.58
2019-02-18T08:22:00.949Z,2.75
2019-02-18T08:23:05.049Z,2.20
2019-02-18T08:24:08.723Z,2.70
2019-02-18T08:25:13.305Z,2.08
2019-02-18T08:26:16.792Z,2.95
2019-02-18T08:27:20.212Z,2.37
2019-02-18T08:28:23.718Z,2.08
2019-02-18T08:29:27.176Z,4.20
2019-02-18T08:30:30.699Z,4.35
2019-02-18T08:31:34.108Z,6.58
2019-02-18T08:32:37.610Z,4.75
2019-02-18T08:33:41.072Z,7.40
2019-02-18T08:34:44.903Z,4.72
2019-02-18T08:35:48.395Z,3.02
2019-02-18T08:36:51.966Z,2.70
2019-02-18T08:37:55.458Z,2.72
2019-02-18T08:38:59.052Z,2.72
2019-02-18T08:40:02.638Z,2.40
2019-02-18T08:41:06.127Z,2.15
2019-02-18T08:42:09.575Z,2.40
2019-02-18T08:43:13.011Z,2.30
2019-02-18T08:44:16.424Z,2.12
2019-02-18T08:45:19.951Z,2.45
2019-02-18T08:46:23.414Z,2.02
2019-02-18T08:47:26.851Z,3.30
2019-02-18T08:48:30.283Z,3.40
2019-02-18T08:49:35.790Z,3.95
2019-02-18T08:50:39.478Z,2.17
2019-02-18T08:51:42.957Z,2.33
2019-02-18T08:52:48.265Z,3.15
2019-02-18T08:53:51.928Z,2.92
2019-02-18T08:54:57.090Z,2.27
2019-02-18T08:56:00.507Z,3.20
2019-02-18T08:57:04.010Z,5.25
2019-02-18T08:58:10.181Z,4.83
2019-02-18T08:59:13.609Z,6.42
2019-02-18T09:00:17.802Z,4.80
2019-02-18T09:01:21.270Z,4.22
2019-02-18T09:02:24.771Z,3.62
2019-02-18T09:03:28.199Z,4.35
2019-02-18T09:04:31.631Z,4.28
2019-02-18T09:05:35.076Z,3.37
2019-02-18T09:06:38.505Z,3.45
2019-02-18T09:07:41.925Z,4.47
2019-02-18T09:08:45.381Z,3.00
2019-02-18T09:09:51.219Z,3.30
2019-02-18T09:10:54.009Z,4.15
2019-02-18T09:11:57.450Z,3.40
2019-02-18T09:13:00.884Z,2.85
2019-02-18T09:14:04.319Z,4.85
2019-02-18T09:15:09.687Z,2.92
2019-02-18T09:16:13.183Z,5.05
2019-02-18T09:17:16.596Z,2.67
2019-02-18T09:18:20.054Z,3.35
2019-02-18T09:19:23.640Z,7.40
2019-02-18T09:20:27.079Z,2.72
2019-02-18T09:21:32.182Z,3.02
2019-02-18T09:22:43.085Z,2.95
2019-02-18T09:23:50.901Z,2.92
2019-02-18T09:24:56.099Z,3.85
2019-02-18T09:25:59.615Z,3.10
2019-02-18T09:27:03.142Z,2.50
2019-02-18T09:28:06.573Z,4.40
2019-02-18T09:29:10.011Z,4.10
2019-02-18T09:30:15.224Z,4.22
2019-02-18T09:31:20.307Z,4.85
2019-02-18T09:32:23.763Z,4.78
2019-02-18T09:33:27.264Z,4.60
2019-02-18T09:34:30.700Z,5.92
2019-02-18T09:35:34.124Z,5.17
2019-02-18T09:36:37.579Z,4.33
2019-02-18T09:37:41.124Z,3.20
2019-02-18T09:38:44.509Z,3.55
2019-02-18T09:39:47.936Z,2.90
2019-02-18T09:40:51.784Z,3.60
2019-02-18T09:41:55.290Z,3.00
2019-02-18T09:42:58.713Z,2.58
2019-02-18T09:44:02.217Z,2.45
2019-02-18T09:45:08.853Z,1.92
2019-02-18T09:46:12.420Z,2.27
2019-02-18T09:47:15.864Z,2.70
2019-02-18T09:48:19.293Z,2.75
2019-02-18T09:49:22.731Z,3.37
2019-02-18T09:50:26.159Z,4.90
2019-02-18T09:51:29.661Z,4.10
2019-02-18T09:52:33.126Z,4.60
2019-02-18T09:53:36.535Z,3.50
2019-02-18T09:54:39.972Z,5.37
2019-02-18T09:55:43.398Z,3.85
2019-02-18T09:56:46.904Z,3.80
2019-02-18T09:57:50.350Z,3.77
2019-02-18T09:58:53.777Z,3.90
2019-02-18T09:59:57.213Z,4.15
2019-02-18T10:01:00.647Z,3.30
2019-02-18T10:02:04.177Z,6.83
2019-02-18T10:03:07.692Z,7.50
2019-02-18T10:04:11.137Z,6.25
2019-02-18T10:05:14.584Z,3.52
2019-02-18T10:06:18.014Z,4.20
2019-02-18T10:07:21.534Z,4.85
2019-02-18T10:08:25.039Z,4.25
2019-02-18T10:09:28.478Z,3.47
2019-02-18T10:10:31.918Z,3.70
2019-02-18T10:11:35.497Z,3.00
2019-02-18T10:12:38.990Z,3.30
2019-02-18T10:13:42.515Z,2.70
2019-02-18T10:14:46.010Z,2.62
2019-02-18T10:15:49.513Z,3.50
2019-02-18T10:16:53.006Z,3.15
2019-02-18T10:17:56.483Z,3.15
2019-02-18T10:18:59.885Z,3.25
2019-02-18T10:20:03.584Z,3.98
2019-02-18T10:21:07.159Z,4.12
2019-02-18T10:22:10.591Z,4.45
2019-02-18T10:23:14.073Z,2.95
2019-02-18T10:24:17.590Z,2.67
2019-02-18T10:25:21.019Z,3.95
2019-02-18T10:26:24.445Z,3.95
2019-02-18T10:27:27.892Z,18.80
2019-02-18T10:28:31.484Z,14.83
2019-02-18T10:29:35.007Z,14.07
2019-02-18T10:30:38.463Z,11.68
2019-02-18T10:31:41.953Z,8.90
2019-02-18T10:32:45.428Z,17.02
2019-02-18T10:33:48.865Z,5.15
2019-02-18T10:34:52.310Z,3.62
2019-02-18T10:35:55.822Z,3.77
2019-02-18T10:36:59.318Z,3.22
2019-02-18T10:38:02.759Z,2.87
2019-02-18T10:39:06.890Z,3.10
2019-02-18T10:40:11.070Z,3.40
2019-02-18T10:41:14.490Z,3.20
2019-02-18T10:42:18.073Z,2.35
2019-02-18T10:43:31.876Z,2.98
2019-02-18T10:44:26.815Z,2.60
2019-02-18T10:45:30.326Z,2.55
2019-02-18T10:46:33.950Z,2.98
2019-02-18T10:47:37.418Z,2.55
2019-02-18T10:48:40.921Z,4.70
2019-02-18T10:49:44.371Z,6.40
2019-02-18T10:50:47.833Z,4.10
2019-02-18T10:51:51.335Z,4.53
2019-02-18T10:52:54.743Z,2.92
2019-02-18T10:53:58.363Z,3.77
2019-02-18T10:55:02.087Z,3.42
2019-02-18T10:56:05.520Z,2.55
2019-02-18T10:57:08.964Z,3.75
2019-02-18T10:58:12.459Z,2.83
2019-02-18T10:59:15.903Z,2.90
2019-02-18T11:00:19.459Z,3.40
2019-02-18T11:01:22.887Z,3.30
2019-02-18T11:02:26.387Z,3.00
2019-02-18T11:03:29.922Z,3.83
2019-02-18T11:04:33.431Z,2.90
2019-02-18T11:05:36.964Z,3.05
2019-02-18T11:06:40.481Z,3.10
2019-02-18T11:07:43.917Z,2.77
2019-02-18T11:08:47.483Z,2.90
2019-02-18T11:09:50.891Z,1.95
2019-02-18T11:10:54.324Z,2.52
2019-02-18T11:11:57.824Z,2.20
2019-02-18T11:13:01.258Z,2.62
2019-02-18T11:14:05.013Z,2.60
2019-02-18T11:15:11.164Z,2.35
2019-02-18T11:16:14.767Z,3.10
2019-02-18T11:17:18.321Z,2.22
2019-02-18T11:18:21.713Z,2.40
2019-02-18T11:19:25.158Z,2.55
2019-02-18T11:20:28.738Z,2.85
2019-02-18T11:21:32.189Z,2.75
2019-02-18T11:22:35.699Z,3.20
2019-02-18T11:23:39.131Z,3.33
2019-02-18T11:24:42.577Z,3.45
2019-02-18T11:25:46.009Z,3.33
2019-02-18T11:26:49.541Z,3.05
2019-02-18T11:27:53.042Z,2.62
2019-02-18T11:28:56.675Z,2.50
2019-02-18T11:30:00.454Z,2.45
2019-02-18T11:31:03.964Z,4.95
2019-02-18T11:32:07.522Z,57.58
2019-02-18T11:33:10.975Z,20.52
2019-02-18T11:34:14.482Z,11.33
2019-02-18T11:35:17.924Z,10.70
2019-02-18T11:36:21.446Z,13.83
2019-02-18T11:37:24.909Z,9.10
2019-02-18T11:38:28.401Z,4.78
2019-02-18T11:39:31.838Z,3.77
2019-02-18T11:40:35.330Z,4.15
2019-02-18T11:41:38.762Z,4.08
2019-02-18T11:42:42.206Z,3.20
2019-02-18T11:43:45.914Z,3.22
2019-02-18T11:44:49.359Z,2.90
2019-02-18T11:45:52.823Z,3.15
2019-02-18T11:46:56.253Z,2.70
2019-02-18T11:47:59.778Z,3.15
2019-02-18T11:49:03.210Z,2.75
2019-02-18T11:50:09.222Z,2.87
2019-02-18T11:51:12.657Z,3.10
2019-02-18T11:52:16.086Z,2.05
2019-02-18T11:53:19.620Z,2.72
2019-02-18T11:54:23.054Z,2.70
2019-02-18T11:55:26.498Z,3.65
2019-02-18T11:56:29.937Z,3.90
2019-02-18T11:57:33.426Z,3.27
2019-02-18T11:58:36.922Z,2.85
2019-02-18T11:59:40.369Z,3.10
2019-02-18T12:00:43.799Z,2.75
2019-02-18T12:01:47.223Z,3.08
2019-02-18T12:02:50.675Z,2.62
2019-02-18T12:03:54.181Z,2.60
2019-02-18T12:04:57.652Z,2.50
2019-02-18T12:06:01.084Z,2.92
2019-02-18T12:07:04.516Z,2.83
2019-02-18T12:08:07.971Z,3.70
2019-02-18T12:09:11.397Z,2.50
2019-02-18T12:10:14.907Z,2.30
2019-02-18T12:11:18.418Z,2.95
2019-02-18T12:12:22.587Z,3.08
2019-02-18T12:13:26.026Z,2.55
2019-02-18T12:14:29.483Z,2.35
2019-02-18T12:15:32.899Z,2.90
2019-02-18T12:16:36.413Z,4.05
2019-02-18T12:17:39.912Z,3.62
2019-02-18T12:18:43.364Z,2.33
2019-02-18T12:19:46.796Z,3.33
2019-02-18T12:20:50.302Z,3.70
2019-02-18T12:21:53.734Z,2.60
2019-02-18T12:22:57.170Z,2.80
2019-02-18T12:24:00.937Z,2.50
2019-02-18T12:25:05.489Z,2.30
2019-02-18T12:26:08.936Z,2.67
2019-02-18T12:27:12.345Z,3.10
2019-02-18T12:28:15.781Z,2.80
2019-02-18T12:29:26.168Z,3.22
2019-02-18T12:30:24.501Z,3.70
2019-02-18T12:31:28.038Z,2.90
2019-02-18T12:32:31.474Z,2.95
2019-02-18T12:33:34.975Z,3.27
2019-02-18T12:34:38.510Z,2.90
2019-02-18T12:35:42.028Z,3.17
2019-02-18T12:36:45.458Z,2.95
2019-02-18T12:37:55.327Z,2.85
2019-02-18T12:38:54.054Z,3.50
2019-02-18T12:39:57.504Z,4.37
2019-02-18T12:41:00.940Z,4.50
2019-02-18T12:42:04.449Z,7.15
2019-02-18T12:43:07.874Z,4.20
2019-02-18T12:44:11.376Z,3.22
2019-02-18T12:45:14.833Z,3.50
2019-02-18T12:46:18.322Z,4.78
2019-02-18T12:47:21.755Z,3.02
2019-02-18T12:48:25.271Z,3.20
2019-02-18T12:49:28.777Z,2.95
2019-02-18T12:50:32.304Z,5.45
2019-02-18T12:51:35.741Z,3.87
2019-02-18T12:52:39.591Z,3.42
2019-02-18T12:53:43.024Z,3.50
2019-02-18T12:54:46.648Z,3.45
2019-02-18T12:55:50.144Z,3.72
2019-02-18T12:56:53.576Z,3.37
2019-02-18T12:57:57.019Z,3.58
2019-02-18T12:59:00.453Z,3.30
2019-02-18T13:00:05.829Z,3.33
2019-02-18T13:01:09.582Z,3.40
2019-02-18T13:02:13.177Z,3.33
2019-02-18T13:03:16.712Z,3.60
2019-02-18T13:04:20.427Z,3.17
2019-02-18T13:05:23.961Z,2.87
2019-02-18T13:06:27.394Z,2.33
2019-02-18T13:07:30.829Z,3.10
2019-02-18T13:08:34.260Z,2.58
2019-02-18T13:09:37.696Z,2.33
2019-02-18T13:10:41.309Z,3.12
2019-02-18T13:11:44.805Z,2.80
2019-02-18T13:12:48.306Z,2.70
2019-02-18T13:13:51.757Z,3.30
2019-02-18T13:14:55.192Z,2.52
2019-02-18T13:15:58.947Z,3.40
2019-02-18T13:17:02.462Z,3.47
2019-02-18T13:18:05.898Z,2.83
2019-02-18T13:19:09.401Z,3.72
2019-02-18T13:20:12.975Z,3.40
2019-02-18T13:21:16.436Z,3.05
2019-02-18T13:22:19.940Z,4.35
2019-02-18T13:23:23.454Z,3.25
2019-02-18T13:24:26.889Z,4.95
2019-02-18T13:25:30.332Z,4.03
2019-02-18T13:26:33.784Z,3.72
2019-02-18T13:27:37.284Z,3.17
2019-02-18T13:28:41.041Z,4.45
2019-02-18T13:29:44.475Z,2.75
2019-02-18T13:30:47.914Z,4.08
2019-02-18T13:31:51.437Z,3.83
2019-02-18T13:32:55.018Z,3.17
2019-02-18T13:33:58.457Z,3.10
2019-02-18T13:35:01.894Z,2.55
2019-02-18T13:36:08.387Z,2.65
2019-02-18T13:37:12.898Z,2.97
2019-02-18T13:38:16.430Z,3.22
2019-02-18T13:39:19.981Z,3.12
2019-02-18T13:40:23.405Z,4.17
2019-02-18T13:41:26.863Z,6.63
2019-02-18T13:42:30.559Z,3.20
2019-02-18T13:43:34.279Z,2.70
2019-02-18T13:44:37.745Z,3.80
2019-02-18T13:45:41.141Z,4.73
2019-02-18T13:46:44.610Z,12.73
2019-02-18T13:47:48.120Z,5.23
2019-02-18T13:48:51.620Z,3.40
2019-02-18T13:49:55.055Z,3.50
2019-02-18T13:50:58.487Z,2.73
2019-02-18T13:52:01.919Z,2.43
2019-02-18T13:53:05.448Z,3.45
2019-02-18T13:54:08.890Z,2.83
2019-02-18T13:55:13.373Z,2.80
2019-02-18T13:56:17.259Z,3.60
2019-02-18T13:57:20.760Z,3.50
2019-02-18T13:58:24.216Z,3.27
2019-02-18T13:59:27.649Z,3.00
2019-02-18T14:00:31.534Z,2.93
2019-02-18T14:01:35.060Z,2.75
2019-02-18T14:02:38.561Z,2.80
2019-02-18T14:03:42.023Z,2.60
2019-02-18T14:04:45.461Z,2.90
2019-02-18T14:05:48.900Z,2.62
2019-02-18T14:06:52.348Z,2.87
2019-02-18T14:07:55.780Z,3.10